createdAt,value
2018-12-30T00:00:30.995Z,4.83
2018-12-30T00:02:59.488Z,4.43
2018-12-30T00:05:27.832Z,4.20
2018-12-30T00:07:56.345Z,4.33
2018-12-30T00:10:25.338Z,4.90
2018-12-30T00:12:54.204Z,4.53
2018-12-30T00:15:22.920Z,4.70
2018-12-30T00:17:51.302Z,5.33
2018-12-30T00:20:21.371Z,4.60
2018-12-30T00:22:52.726Z,4.63
2018-12-30T00:25:21.382Z,3.43
2018-12-30T00:27:49.999Z,4.87
2018-12-30T00:30:18.589Z,3.90
2018-12-30T00:32:47.616Z,4.13
2018-12-30T00:35:16.189Z,3.53
2018-12-30T00:37:44.362Z,4.73
2018-12-30T00:40:13.324Z,4.73
2018-12-30T00:42:42.090Z,4.53
2018-12-30T00:45:10.897Z,4.23
2018-12-30T00:47:39.110Z,3.40
2018-12-30T00:50:08.460Z,4.40
2018-12-30T00:52:36.761Z,4.63
2018-12-30T00:55:05.386Z,4.73
2018-12-30T00:57:34.208Z,3.90
2018-12-30T01:00:02.951Z,4.60
2018-12-30T01:02:32.142Z,5.47
2018-12-30T01:05:00.739Z,4.57
2018-12-30T01:07:28.773Z,5.47
2018-12-30T01:09:57.456Z,4.50
2018-12-30T01:12:25.792Z,3.77
2018-12-30T01:14:54.495Z,3.73
2018-12-30T01:17:22.741Z,3.93
2018-12-30T01:19:51.123Z,4.10
2018-12-30T01:22:23.680Z,3.23
2018-12-30T01:24:52.842Z,3.80
2018-12-30T01:27:21.011Z,3.87
2018-12-30T01:29:49.855Z,2.97
2018-12-30T01:32:22.630Z,3.80
2018-12-30T01:34:51.660Z,3.20
2018-12-30T01:37:19.856Z,4.27
2018-12-30T01:39:48.972Z,3.87
2018-12-30T01:42:17.968Z,3.70
2018-12-30T01:44:47.262Z,3.07
2018-12-30T01:47:16.343Z,3.10
2018-12-30T01:49:45.166Z,3.00
2018-12-30T01:52:13.781Z,2.93
2018-12-30T01:54:42.431Z,4.00
2018-12-30T01:57:10.604Z,3.63
2018-12-30T01:59:39.039Z,3.47
2018-12-30T02:02:08.517Z,2.87
2018-12-30T02:04:37.009Z,4.00
2018-12-30T02:07:05.082Z,4.00
2018-12-30T02:09:34.101Z,3.57
2018-12-30T02:12:03.119Z,3.30
2018-12-30T02:14:32.704Z,3.53
2018-12-30T02:17:01.138Z,3.20
2018-12-30T02:19:30.632Z,3.20
2018-12-30T02:21:58.796Z,3.20
2018-12-30T02:24:27.091Z,2.83
2018-12-30T02:26:55.251Z,3.53
2018-12-30T02:29:23.420Z,3.80
2018-12-30T02:31:54.457Z,3.30
2018-12-30T02:34:22.699Z,3.83
2018-12-30T02:36:51.221Z,3.13
2018-12-30T02:39:20.008Z,3.23
2018-12-30T02:41:48.170Z,4.33
2018-12-30T02:44:16.336Z,3.20
2018-12-30T02:46:45.673Z,4.90
2018-12-30T02:49:13.688Z,2.80
2018-12-30T02:51:50.068Z,4.03
2018-12-30T02:54:12.119Z,2.70
2018-12-30T02:56:40.803Z,2.60
2018-12-30T02:59:08.967Z,3.93
2018-12-30T03:01:37.270Z,2.03
2018-12-30T03:04:05.562Z,2.20
2018-12-30T03:06:34.421Z,2.70
2018-12-30T03:09:05.380Z,3.43
2018-12-30T03:11:34.521Z,3.20
2018-12-30T03:14:02.839Z,2.57
2018-12-30T03:16:33.975Z,2.70
2018-12-30T03:19:02.222Z,2.90
2018-12-30T03:21:31.652Z,3.03
2018-12-30T03:24:00.034Z,2.90
2018-12-30T03:26:28.176Z,2.77
2018-12-30T03:28:56.386Z,2.50
2018-12-30T03:31:24.445Z,3.13
2018-12-30T03:33:52.837Z,2.97
2018-12-30T03:36:22.102Z,3.17
2018-12-30T03:38:50.729Z,3.60
2018-12-30T03:41:19.807Z,3.20
2018-12-30T03:43:47.941Z,2.90
2018-12-30T03:46:16.170Z,3.63
2018-12-30T03:48:44.623Z,3.63
2018-12-30T03:51:12.971Z,2.87
2018-12-30T03:53:41.091Z,3.13
2018-12-30T03:56:10.474Z,2.63
2018-12-30T03:58:39.041Z,2.73
2018-12-30T04:01:07.525Z,3.70
2018-12-30T04:03:36.137Z,3.40
2018-12-30T04:06:04.702Z,3.13
2018-12-30T04:08:33.269Z,2.83
2018-12-30T04:11:01.481Z,3.43
2018-12-30T04:13:30.122Z,2.63
2018-12-30T04:15:58.349Z,3.10
2018-12-30T04:18:26.913Z,3.53
2018-12-30T04:20:55.063Z,4.03
2018-12-30T04:23:23.903Z,3.67
2018-12-30T04:25:51.851Z,4.07
2018-12-30T04:28:20.638Z,2.93
2018-12-30T04:30:49.113Z,3.17
2018-12-30T04:33:17.079Z,3.00
2018-12-30T04:35:45.365Z,2.90
2018-12-30T04:38:14.227Z,2.93
2018-12-30T04:40:42.420Z,3.13
2018-12-30T04:43:11.195Z,3.00
2018-12-30T04:45:39.591Z,3.23
2018-12-30T04:48:10.115Z,2.87
2018-12-30T04:50:39.924Z,3.23
2018-12-30T04:53:08.627Z,3.20
2018-12-30T04:55:36.701Z,2.63
2018-12-30T04:58:04.769Z,3.30
2018-12-30T05:00:33.271Z,2.60
2018-12-30T05:03:01.810Z,3.50
2018-12-30T05:05:30.833Z,3.13
2018-12-30T05:07:59.207Z,4.10
2018-12-30T05:10:27.467Z,3.67
2018-12-30T05:12:55.715Z,2.53
2018-12-30T05:15:24.223Z,3.67
2018-12-30T05:17:53.105Z,2.57
2018-12-30T05:20:21.398Z,2.97
2018-12-30T05:22:49.884Z,3.47
2018-12-30T05:25:18.463Z,3.70
2018-12-30T05:27:47.138Z,3.17
2018-12-30T05:30:15.527Z,3.77
2018-12-30T05:32:43.860Z,2.83
2018-12-30T05:35:11.969Z,3.73
2018-12-30T05:37:40.906Z,2.67
2018-12-30T05:40:09.041Z,2.53
2018-12-30T05:42:37.172Z,3.80
2018-12-30T05:45:06.445Z,3.17
2018-12-30T05:47:34.895Z,3.03
2018-12-30T05:50:03.391Z,2.90
2018-12-30T05:52:31.964Z,3.20
2018-12-30T05:55:00.544Z,4.90
2018-12-30T05:57:29.599Z,2.93
2018-12-30T05:59:58.322Z,4.13
2018-12-30T06:02:27.001Z,3.30
2018-12-30T06:04:55.587Z,3.87
2018-12-30T06:07:24.053Z,3.77
2018-12-30T06:09:52.576Z,3.67
2018-12-30T06:12:21.411Z,3.87
2018-12-30T06:14:49.565Z,3.73
2018-12-30T06:17:18.088Z,3.13
2018-12-30T06:19:46.550Z,3.83
2018-12-30T06:22:14.551Z,3.63
2018-12-30T06:24:42.745Z,4.17
2018-12-30T06:27:11.776Z,2.97
2018-12-30T06:29:40.264Z,3.97
2018-12-30T06:32:08.780Z,3.57
2018-12-30T06:34:37.341Z,3.40
2018-12-30T06:37:06.302Z,3.40
2018-12-30T06:39:34.463Z,3.97
2018-12-30T06:42:02.685Z,3.20
2018-12-30T06:44:30.767Z,3.67
2018-12-30T06:46:59.676Z,4.53
2018-12-30T06:49:28.084Z,4.53
2018-12-30T06:51:56.099Z,3.97
2018-12-30T06:54:24.316Z,3.50
2018-12-30T06:56:53.073Z,3.30
2018-12-30T06:59:21.658Z,4.10
2018-12-30T07:01:50.739Z,2.90
2018-12-30T07:04:19.779Z,3.50
2018-12-30T07:06:51.510Z,2.87
2018-12-30T07:09:19.786Z,3.27
2018-12-30T07:11:48.621Z,3.37
2018-12-30T07:14:16.649Z,4.10
2018-12-30T07:16:46.344Z,3.80
2018-12-30T07:19:14.989Z,4.27
2018-12-30T07:21:43.417Z,3.27
2018-12-30T07:24:12.968Z,3.83
2018-12-30T07:26:41.359Z,3.37
2018-12-30T07:29:09.788Z,3.93
2018-12-30T07:31:38.146Z,3.97
2018-12-30T07:34:06.537Z,3.33
2018-12-30T07:36:35.338Z,3.50
2018-12-30T07:39:05.172Z,3.73
2018-12-30T07:41:33.290Z,3.33
2018-12-30T07:44:01.549Z,3.00
2018-12-30T07:46:30.029Z,4.03
2018-12-30T07:48:58.172Z,3.43
2018-12-30T07:51:26.729Z,4.17
2018-12-30T07:53:58.791Z,3.80
2018-12-30T07:56:27.589Z,3.20
2018-12-30T07:58:56.306Z,3.80
2018-12-30T08:01:24.401Z,3.80
2018-12-30T08:03:52.304Z,3.40
2018-12-30T08:06:20.731Z,4.20
2018-12-30T08:08:49.246Z,3.27
2018-12-30T08:11:17.574Z,3.50
2018-12-30T08:13:45.690Z,3.10
2018-12-30T08:16:13.999Z,4.70
2018-12-30T08:18:43.899Z,4.13
2018-12-30T08:21:11.976Z,3.33
2018-12-30T08:23:40.226Z,3.70
2018-12-30T08:26:08.915Z,3.83
2018-12-30T08:28:37.268Z,5.17
2018-12-30T08:31:05.906Z,4.07
2018-12-30T08:33:34.312Z,4.00
2018-12-30T08:36:03.068Z,4.97
2018-12-30T08:38:31.611Z,5.80
2018-12-30T08:40:59.707Z,4.70
2018-12-30T08:43:30.957Z,3.87
2018-12-30T08:46:01.992Z,4.90
2018-12-30T08:48:30.589Z,4.40
2018-12-30T08:50:59.618Z,3.93
2018-12-30T08:53:29.483Z,4.90
2018-12-30T08:55:58.373Z,5.10
2018-12-30T08:58:27.147Z,4.63
2018-12-30T09:00:55.318Z,6.07
2018-12-30T09:03:23.408Z,4.77
2018-12-30T09:05:51.771Z,5.47
2018-12-30T09:08:19.939Z,5.43
2018-12-30T09:10:48.546Z,6.80
2018-12-30T09:13:16.988Z,5.43
2018-12-30T09:15:45.569Z,5.47
2018-12-30T09:18:13.832Z,8.50
2018-12-30T09:20:42.602Z,14.80
2018-12-30T09:23:10.916Z,12.00
2018-12-30T09:25:39.233Z,7.90
2018-12-30T09:28:07.317Z,5.47
2018-12-30T09:30:35.539Z,4.40
2018-12-30T09:33:04.683Z,4.83
2018-12-30T09:35:33.003Z,4.33
2018-12-30T09:38:01.012Z,5.73
2018-12-30T09:40:29.877Z,5.20
2018-12-30T09:42:58.305Z,9.93
2018-12-30T09:45:26.507Z,9.50
2018-12-30T09:47:54.612Z,6.03
2018-12-30T09:50:22.931Z,6.53
2018-12-30T09:52:52.217Z,8.07
2018-12-30T09:55:21.079Z,13.57
2018-12-30T09:57:49.325Z,11.07
2018-12-30T10:00:17.366Z,9.30
2018-12-30T10:02:46.322Z,9.37
2018-12-30T10:05:14.418Z,10.00
2018-12-30T10:07:42.624Z,8.23
2018-12-30T10:10:10.829Z,5.20
2018-12-30T10:12:39.766Z,5.90
2018-12-30T10:15:10.086Z,4.07
2018-12-30T10:17:40.888Z,4.03
2018-12-30T10:20:09.195Z,3.93
2018-12-30T10:22:40.380Z,4.57
2018-12-30T10:25:08.573Z,4.43
2018-12-30T10:27:36.577Z,4.80
2018-12-30T10:30:06.052Z,5.33
2018-12-30T10:32:34.427Z,5.80
2018-12-30T10:35:03.247Z,5.13
2018-12-30T10:37:31.463Z,4.77
2018-12-30T10:40:00.289Z,7.13
2018-12-30T10:42:28.797Z,5.77
2018-12-30T10:44:56.955Z,5.07
2018-12-30T10:47:25.594Z,4.97
2018-12-30T10:49:54.948Z,4.60
2018-12-30T10:52:23.754Z,4.43
2018-12-30T10:54:52.891Z,4.73
2018-12-30T10:57:21.321Z,4.57
2018-12-30T10:59:49.786Z,3.97
2018-12-30T11:02:17.598Z,4.30
2018-12-30T11:04:46.163Z,4.40
2018-12-30T11:07:14.208Z,6.00
2018-12-30T11:09:42.978Z,5.37
2018-12-30T11:12:11.301Z,5.00
2018-12-30T11:14:39.244Z,6.53
2018-12-30T11:17:07.383Z,6.00
2018-12-30T11:19:35.998Z,6.03
2018-12-30T11:22:04.195Z,5.20
2018-12-30T11:24:32.544Z,5.07
2018-12-30T11:27:00.995Z,6.27
2018-12-30T11:29:29.515Z,5.07
2018-12-30T11:31:57.495Z,4.37
2018-12-30T11:34:26.774Z,4.97
2018-12-30T11:36:58.719Z,3.57
2018-12-30T11:39:27.539Z,3.47
2018-12-30T11:41:55.841Z,4.30
2018-12-30T11:44:24.307Z,3.40
2018-12-30T11:46:52.491Z,4.50
2018-12-30T11:49:22.083Z,4.73
2018-12-30T11:51:50.413Z,3.23
2018-12-30T11:54:18.780Z,4.40
2018-12-30T11:56:47.221Z,4.00
2018-12-30T11:59:15.795Z,7.10
2018-12-30T12:01:44.241Z,6.47
2018-12-30T12:04:12.779Z,3.73
2018-12-30T12:06:41.003Z,9.47
2018-12-30T12:09:09.358Z,9.23
2018-12-30T12:11:38.560Z,6.17
2018-12-30T12:14:07.397Z,3.57
2018-12-30T12:16:36.293Z,2.87
2018-12-30T12:19:04.781Z,3.33
2018-12-30T12:21:32.913Z,4.00
2018-12-30T12:24:01.048Z,3.00
2018-12-30T12:26:29.299Z,2.90
2018-12-30T12:28:57.648Z,2.73
2018-12-30T12:31:26.588Z,4.20
2018-12-30T12:33:55.302Z,2.77
2018-12-30T12:36:23.656Z,3.13
2018-12-30T12:38:52.333Z,2.97
2018-12-30T12:41:20.902Z,3.30
2018-12-30T12:43:49.333Z,3.50
2018-12-30T12:46:17.420Z,3.73
2018-12-30T12:48:45.721Z,4.77
2018-12-30T12:51:14.192Z,3.70
2018-12-30T12:53:42.355Z,4.77
2018-12-30T12:56:10.706Z,3.00
2018-12-30T12:58:38.836Z,4.10
2018-12-30T13:01:07.156Z,3.10
2018-12-30T13:03:35.517Z,2.80
2018-12-30T13:06:03.664Z,2.83
2018-12-30T13:08:31.793Z,3.07
2018-12-30T13:11:03.330Z,2.93
2018-12-30T13:13:36.170Z,3.17
2018-12-30T13:16:04.840Z,2.80
2018-12-30T13:18:33.326Z,4.47
2018-12-30T13:21:02.179Z,2.73
2018-12-30T13:23:30.780Z,3.50
2018-12-30T13:26:08.888Z,2.73
2018-12-30T13:28:38.824Z,3.87
2018-12-30T13:31:07.228Z,3.57
2018-12-30T13:33:35.586Z,3.00
2018-12-30T13:36:11.217Z,2.87
2018-12-30T13:38:39.493Z,2.60
2018-12-30T13:41:08.579Z,2.70
2018-12-30T13:43:43.553Z,4.63
2018-12-30T13:46:11.759Z,3.43
2018-12-30T13:48:41.053Z,3.23
2018-12-30T13:51:09.939Z,4.40
2018-12-30T13:53:38.652Z,3.97
2018-12-30T13:56:07.167Z,3.97
2018-12-30T13:58:35.244Z,3.20
2018-12-30T14:01:03.803Z,3.40
2018-12-30T14:03:32.521Z,4.10
2018-12-30T14:06:00.822Z,3.40
2018-12-30T14:08:29.473Z,3.47
2018-12-30T14:10:58.546Z,4.80
2018-12-30T14:13:31.716Z,5.63
2018-12-30T14:16:00.847Z,5.20
2018-12-30T14:18:28.829Z,9.67
2018-12-30T14:20:57.095Z,6.63
2018-12-30T14:23:25.445Z,7.40
2018-12-30T14:25:54.359Z,6.03
2018-12-30T14:28:22.625Z,5.63
2018-12-30T14:30:50.963Z,5.53
2018-12-30T14:33:19.939Z,4.87
2018-12-30T14:35:48.719Z,4.90
2018-12-30T14:38:16.867Z,3.87
2018-12-30T14:40:45.345Z,4.23
2018-12-30T14:43:13.750Z,3.77
2018-12-30T14:45:41.746Z,4.60
2018-12-30T14:48:09.838Z,3.60
2018-12-30T14:50:38.576Z,4.07
2018-12-30T14:53:08.415Z,4.20
2018-12-30T14:55:36.741Z,3.80
2018-12-30T14:58:05.032Z,3.67
2018-12-30T15:00:33.507Z,3.70
2018-12-30T15:03:02.381Z,4.70
2018-12-30T15:05:30.568Z,3.93
2018-12-30T15:07:58.745Z,3.83
2018-12-30T15:10:27.189Z,3.60
2018-12-30T15:12:55.610Z,3.50
2018-12-30T15:15:24.335Z,3.77
2018-12-30T15:17:52.817Z,4.17
2018-12-30T15:20:21.451Z,4.13
2018-12-30T15:22:50.246Z,4.10
2018-12-30T15:25:18.295Z,3.93
2018-12-30T15:27:47.523Z,4.07
2018-12-30T15:30:17.470Z,3.30
2018-12-30T15:32:45.474Z,3.57
2018-12-30T15:35:13.711Z,3.00
2018-12-30T15:37:41.827Z,3.77
2018-12-30T15:40:10.324Z,3.67
2018-12-30T15:42:39.265Z,3.77
2018-12-30T15:45:07.774Z,4.10
2018-12-30T15:47:36.084Z,3.50
2018-12-30T15:50:06.350Z,4.90
2018-12-30T15:52:34.335Z,3.40
2018-12-30T15:55:03.563Z,3.53
2018-12-30T15:57:31.955Z,4.90
2018-12-30T16:00:03.469Z,6.43
2018-12-30T16:02:31.569Z,5.70
2018-12-30T16:05:03.592Z,3.90
2018-12-30T16:07:32.799Z,5.10
2018-12-30T16:10:07.403Z,4.23
2018-12-30T16:12:39.451Z,6.07
2018-12-30T16:15:09.385Z,5.17
2018-12-30T16:17:37.617Z,4.87
2018-12-30T16:20:07.221Z,9.90
2018-12-30T16:22:35.615Z,6.70
2018-12-30T16:25:04.496Z,5.67
2018-12-30T16:27:32.888Z,5.60
2018-12-30T16:30:01.671Z,6.83
2018-12-30T16:32:30.517Z,5.37
2018-12-30T16:34:58.706Z,6.70
2018-12-30T16:37:27.267Z,6.63
2018-12-30T16:39:55.382Z,6.73
2018-12-30T16:42:24.125Z,7.27
2018-12-30T16:44:53.265Z,7.40
2018-12-30T16:47:22.468Z,7.83
2018-12-30T16:49:51.333Z,7.30
2018-12-30T16:52:19.842Z,8.53
2018-12-30T16:54:48.825Z,8.13
2018-12-30T16:57:19.933Z,7.83
2018-12-30T16:59:48.461Z,9.03
2018-12-30T17:02:16.776Z,9.60
2018-12-30T17:04:44.902Z,12.07
2018-12-30T17:07:13.283Z,10.77
2018-12-30T17:09:42.051Z,10.90
2018-12-30T17:12:10.138Z,11.93
2018-12-30T17:14:39.244Z,11.53
2018-12-30T17:17:08.113Z,11.27
2018-12-30T17:19:36.270Z,12.23
2018-12-30T17:22:04.291Z,13.50
2018-12-30T17:24:33.573Z,13.37
2018-12-30T17:27:02.311Z,13.30
2018-12-30T17:29:30.944Z,12.77
2018-12-30T17:31:59.108Z,13.73
2018-12-30T17:34:27.660Z,15.00
2018-12-30T17:36:55.809Z,15.30
2018-12-30T17:39:24.211Z,16.20
2018-12-30T17:41:52.720Z,15.87
2018-12-30T17:44:21.465Z,17.10
2018-12-30T17:46:49.659Z,17.97
2018-12-30T17:49:19.403Z,15.40
2018-12-30T17:51:47.504Z,19.73
2018-12-30T17:54:16.035Z,18.63
2018-12-30T17:56:44.211Z,18.50
2018-12-30T17:59:13.204Z,19.87
2018-12-30T18:01:41.456Z,20.57
2018-12-30T18:04:10.279Z,18.80
2018-12-30T18:06:38.435Z,22.00
2018-12-30T18:09:09.768Z,19.87
2018-12-30T18:11:38.089Z,22.93
2018-12-30T18:14:06.272Z,23.50
2018-12-30T18:16:34.427Z,24.33
2018-12-30T18:19:03.110Z,25.53
2018-12-30T18:21:31.619Z,30.10
2018-12-30T18:24:00.040Z,28.27
2018-12-30T18:26:28.456Z,31.43
2018-12-30T18:28:57.358Z,33.10
2018-12-30T18:31:30.015Z,32.63
2018-12-30T18:34:01.208Z,35.20
2018-12-30T18:36:29.557Z,38.93
2018-12-30T18:38:58.450Z,38.07
2018-12-30T18:41:26.583Z,39.40
2018-12-30T18:43:54.889Z,43.87
2018-12-30T18:46:23.171Z,46.40
2018-12-30T18:48:51.914Z,42.30
2018-12-30T18:51:21.159Z,46.20
2018-12-30T18:53:49.320Z,46.70
2018-12-30T18:56:18.577Z,55.17
2018-12-30T18:58:47.340Z,51.00
2018-12-30T19:01:15.482Z,54.20
2018-12-30T19:03:44.973Z,55.87
2018-12-30T19:06:17.367Z,57.77
2018-12-30T19:08:46.531Z,59.03
2018-12-30T19:11:14.703Z,65.83
2018-12-30T19:13:48.634Z,56.00
2018-12-30T19:16:16.920Z,57.07
2018-12-30T19:18:44.932Z,58.97
2018-12-30T19:21:13.776Z,57.10
2018-12-30T19:23:42.976Z,54.57
2018-12-30T19:26:14.407Z,61.13
2018-12-30T19:28:42.264Z,63.60
2018-12-30T19:31:10.453Z,67.07
2018-12-30T19:33:39.257Z,59.63
2018-12-30T19:36:08.373Z,71.50
2018-12-30T19:38:36.622Z,63.40
2018-12-30T19:41:04.887Z,64.93
2018-12-30T19:43:33.168Z,60.37
2018-12-30T19:46:01.304Z,63.20
2018-12-30T19:48:30.895Z,60.77
2018-12-30T19:50:59.684Z,59.37
2018-12-30T19:53:29.462Z,56.53
2018-12-30T19:55:57.627Z,64.37
2018-12-30T19:58:25.939Z,61.77
2018-12-30T20:00:57.096Z,64.07
2018-12-30T20:03:25.298Z,58.93
2018-12-30T20:05:54.023Z,62.93
2018-12-30T20:08:22.334Z,63.40
2018-12-30T20:10:50.521Z,66.13
2018-12-30T20:13:18.746Z,60.77
2018-12-30T20:15:47.512Z,67.67
2018-12-30T20:18:15.844Z,73.10
2018-12-30T20:20:44.068Z,61.43
2018-12-30T20:23:13.438Z,63.70
2018-12-30T20:25:42.307Z,71.00
2018-12-30T20:28:12.709Z,63.70
2018-12-30T20:30:41.372Z,62.87
2018-12-30T20:33:10.474Z,63.67
2018-12-30T20:35:38.752Z,62.83
2018-12-30T20:38:08.437Z,67.67
2018-12-30T20:40:38.864Z,62.53
2018-12-30T20:43:08.218Z,65.33
2018-12-30T20:45:37.429Z,66.03
2018-12-30T20:48:05.556Z,65.90
2018-12-30T20:50:33.970Z,67.07
2018-12-30T20:53:02.778Z,78.23
2018-12-30T20:55:30.987Z,71.27
2018-12-30T20:58:02.846Z,68.90
2018-12-30T21:00:34.523Z,68.07
2018-12-30T21:03:09.412Z,73.23
2018-12-30T21:05:41.996Z,73.67
2018-12-30T21:08:14.522Z,71.67
2018-12-30T21:10:46.921Z,70.43
2018-12-30T21:13:18.915Z,75.60
2018-12-30T21:15:51.556Z,77.87
2018-12-30T21:18:24.011Z,76.63
2018-12-30T21:20:57.031Z,82.60
2018-12-30T21:23:29.421Z,84.53
2018-12-30T21:26:00.286Z,78.77
2018-12-30T21:29:07.053Z,80.03
2018-12-30T21:31:57.933Z,88.93
2018-12-30T21:34:54.977Z,80.90
2018-12-30T21:37:42.099Z,86.03
2018-12-30T21:40:32.522Z,87.97
2018-12-30T21:43:20.842Z,81.27
2018-12-30T21:46:08.232Z,78.37
2018-12-30T21:48:55.281Z,79.70
2018-12-30T21:51:47.621Z,83.00
2018-12-30T21:54:17.055Z,85.23
2018-12-30T21:56:54.570Z,82.33
2018-12-30T21:59:18.708Z,74.70
2018-12-30T22:01:51.121Z,74.17
2018-12-30T22:04:23.730Z,72.13
2018-12-30T22:06:53.470Z,73.60
2018-12-30T22:09:22.594Z,72.70
2018-12-30T22:11:51.915Z,71.00
2018-12-30T22:14:22.713Z,75.37
2018-12-30T22:16:54.942Z,74.83
2018-12-30T22:19:25.166Z,75.20
2018-12-30T22:21:56.598Z,76.30
2018-12-30T22:24:27.398Z,70.47
2018-12-30T22:26:56.821Z,76.90
2018-12-30T22:29:26.096Z,72.67
2018-12-30T22:31:56.736Z,70.73
2018-12-30T22:34:26.151Z,83.37
2018-12-30T22:36:58.449Z,67.33
2018-12-30T22:39:30.386Z,72.73
2018-12-30T22:42:02.279Z,69.23
2018-12-30T22:44:37.331Z,69.80
2018-12-30T22:47:08.646Z,71.43
2018-12-30T22:49:38.266Z,68.87
2018-12-30T22:52:09.756Z,72.03
2018-12-30T22:54:39.925Z,64.30
2018-12-30T22:57:12.616Z,62.50
2018-12-30T22:59:42.592Z,68.27
2018-12-30T23:02:27.306Z,62.50
2018-12-30T23:04:58.647Z,57.23
2018-12-30T23:07:28.089Z,59.07
2018-12-30T23:10:00.511Z,67.77
2018-12-30T23:12:36.936Z,65.57
2018-12-30T23:15:06.621Z,66.43
2018-12-30T23:17:39.404Z,64.53
2018-12-30T23:20:10.248Z,60.10
2018-12-30T23:22:42.204Z,53.83
2018-12-30T23:25:11.389Z,53.33
2018-12-30T23:27:41.345Z,57.17
2018-12-30T23:30:33.243Z,54.87
2018-12-30T23:33:05.112Z,59.67
2018-12-30T23:35:34.409Z,55.37
2018-12-30T23:38:07.906Z,52.80
2018-12-30T23:40:40.973Z,52.47
2018-12-30T23:43:12.583Z,54.57
2018-12-30T23:45:43.383Z,48.37
2018-12-30T23:48:12.793Z,46.27
2018-12-30T23:50:42.770Z,49.60
2018-12-30T23:53:11.948Z,51.70
2018-12-30T23:55:41.638Z,51.03
2018-12-30T23:58:11.009Z,52.87
